Patcona II — WDC2170 — position and weather

sailwx.info

Track history (hours):
 
Tides and Currents Weather Stations Pressure Air Temp Water Temp Dewpoint Dewpoint Depression Visibility Wind Speed Wind Dir Waves Ship Positions

Patcona II

Owner: Connolly-Pacific Co, long beach, CA. More information available from US FCC via Universal Licensing System and Coast Guard Vessel Documentation Center.

Last reported at 2014-Nov-23 15:33 UTC. Time now 2014-Nov-23 16:05 UTC.
Position N 33°46' W 118°13'.

; draft 9 m.

Type: Towing. MMSI: 366988960.

Date/timePositionNaut miles runAvg speedWind from/ knotsBaromVisibWave heightAir tempDewpointWater temp
2014-Nov-23 15:33N 33°46' W 118°13'0 0.0
2014-Nov-23 14:33N 33°46' W 118°13'0 0.0
2014-Nov-23 13:33N 33°46' W 118°13'0 0.0
2014-Nov-23 12:33N 33°46' W 118°13'0 0.0
2014-Nov-23 11:33N 33°46' W 118°13'0 0.0
2014-Nov-23 10:33N 33°46' W 118°13'0 0.0
2014-Nov-23 09:33N 33°46' W 118°13'0 0.0
2014-Nov-23 08:33N 33°46' W 118°13'0 0.0
2014-Nov-23 07:33N 33°46' W 118°13'0 0.0
2014-Nov-23 06:33N 33°46' W 118°13'0 0.0
2014-Nov-23 05:34N 33°46' W 118°13'0 0.0
2014-Nov-23 04:33N 33°46' W 118°13'0 0.0
2014-Nov-23 03:33N 33°46' W 118°13'0 0.0
2014-Nov-23 02:33N 33°46' W 118°13'0 0.0
2014-Nov-23 01:33N 33°46' W 118°13'0 0.0
2014-Nov-23 00:33N 33°46' W 118°13'0 0.0
2014-Nov-22 23:34N 33°46' W 118°13'0 0.0
2014-Nov-22 22:34N 33°46' W 118°13'0 0.0
2014-Nov-22 21:33N 33°46' W 118°13'0 0.0
2014-Nov-22 20:33N 33°46' W 118°13'0 0.0
2014-Nov-22 19:33N 33°46' W 118°13'0 0.0
2014-Nov-22 18:33N 33°46' W 118°13'0 0.0
2014-Nov-22 17:33N 33°46' W 118°13'0 0.0
2014-Nov-22 16:33N 33°46' W 118°13'0 0.0
2014-Nov-22 15:33N 33°46' W 118°13'11962987.3
2014-Nov-22 15:09N 29°43' W 095°16'11962003.1
2014-Nov-22 14:34N 33°46' W 118°13'0 0.0
2014-Nov-22 13:34N 33°46' W 118°13'0 0.0
2014-Nov-22 12:34N 33°46' W 118°13'11982436.5
2014-Nov-22 12:04N 29°44' W 095°14'11982345.1
2014-Nov-22 11:33N 33°46' W 118°13'120170887.7
2014-Nov-22 11:32N 29°44' W 095°09'12011225.0
2014-Nov-22 10:34N 33°46' W 118°13'12036188.5
2014-Nov-22 10:22N 29°47' W 095°06'12031493.8
2014-Nov-22 09:34N 33°46' W 118°13'120361013.6
2014-Nov-22 09:32N 29°47' W 095°06'12031224.4
2014-Nov-22 08:33N 33°46' W 118°13'12034331968.3
2014-Nov-22 08:33N 29°47' W 095°06'12031200.3
2014-Nov-22 07:33N 33°46' W 118°13'12035618.6
2014-Nov-22 07:20N 29°47' W 095°06'12031542.2
2014-Nov-22 06:34N 33°46' W 118°13'120316534.2
2014-Nov-22 06:29N 29°47' W 095°06'12031297.4
2014-Nov-22 05:34N 33°46' W 118°13'12035625.9
2014-Nov-22 05:21N 29°47' W 095°06'12031520.0
2014-Nov-22 04:33N 33°46' W 118°13'12033257.1
2014-Nov-22 04:11N 29°47' W 095°06'12031908.4
2014-Nov-22 03:33N 33°46' W 118°13'0 0.0
2014-Nov-22 02:33N 33°46' W 118°13'1203135373.8
2014-Nov-22 02:33N 29°47' W 095°06'12031214.5
2014-Nov-22 01:33N 33°46' W 118°13'1204135413.6
2014-Nov-22 01:33N 29°45' W 095°06'12041187.5
2014-Nov-22 00:32N 33°46' W 118°13'0 0.0
2014-Nov-21 23:34N 33°46' W 118°13'0 0.0
2014-Nov-21 22:33N 33°46' W 118°13'0 0.0
2014-Nov-21 21:32N 33°46' W 118°13'0 0.0
2014-Nov-21 20:33N 33°46' W 118°13'0 0.0
2014-Nov-21 19:33N 33°46' W 118°13'0 0.0
2014-Nov-21 18:34N 33°46' W 118°13'0 0.0
2014-Nov-21 17:33N 33°46' W 118°13'11988294.5
2014-Nov-21 17:25N 29°44' W 095°13'11981409.5
2014-Nov-21 16:34N 33°46' W 118°13'1200431966.5
2014-Nov-21 16:33N 29°45' W 095°11'5 4.9
2014-Nov-21 15:33N 29°46' W 095°05'12043443.2
2014-Nov-21 15:12N 33°46' W 118°13'0 0.0
2014-Nov-21 14:34N 33°46' W 118°13'1203481333.3
2014-Nov-21 14:33N 29°47' W 095°06'12031203.3
2014-Nov-21 13:33N 33°46' W 118°13'0 0.0
2014-Nov-21 12:33N 33°46' W 118°13'0 0.0
2014-Nov-21 11:34N 33°46' W 118°13'0 0.0
2014-Nov-21 10:34N 33°46' W 118°13'12114358258.1
2014-Nov-21 10:34N 29°41' W 094°59'7 7.2
2014-Nov-21 09:34N 29°35' W 094°56'1215546958.9
2014-Nov-21 09:33N 33°46' W 118°13'12211224.2
2014-Nov-21 08:34N 29°29' W 094°51'1221151594.5
2014-Nov-21 08:33N 33°46' W 118°13'0 0.0
2014-Nov-21 07:32N 33°46' W 118°13'0 0.0
2014-Nov-21 06:34N 33°46' W 118°13'0 0.0
2014-Nov-21 05:33N 33°46' W 118°13'0 0.0
2014-Nov-21 04:34N 33°46' W 118°13'0 0.0
2014-Nov-21 03:34N 33°46' W 118°13'0 0.0
2014-Nov-21 02:32N 33°46' W 118°13'0 0.0
2014-Nov-21 01:33N 33°46' W 118°13'0 0.0
2014-Nov-21 00:32N 33°46' W 118°13'0 0.0
2014-Nov-20 23:31N 33°46' W 118°13'0 0.0
2014-Nov-20 22:33N 33°46' W 118°13'0 0.0
2014-Nov-20 21:33N 33°46' W 118°13'0 0.0
2014-Nov-20 20:33N 33°46' W 118°13'0 0.0
2014-Nov-20 19:34N 33°46' W 118°13'0 0.0
2014-Nov-20 18:33N 33°46' W 118°13'0 0.0
2014-Nov-20 17:33N 33°46' W 118°13'0 0.0
2014-Nov-20 16:34N 33°46' W 118°13'0 0.0
2014-Nov-20 15:33N 33°46' W 118°13'0 0.0
2014-Nov-20 14:32N 33°46' W 118°13'0 0.0
2014-Nov-20 13:33N 33°46' W 118°13'0 0.0
2014-Nov-20 12:33N 33°46' W 118°13'0 0.0
2014-Nov-20 11:34N 33°46' W 118°13'0 0.0
2014-Nov-20 10:33N 33°46' W 118°13'0 0.0
2014-Nov-20 09:31N 33°46' W 118°13'0 0.0
2014-Nov-20 08:33N 33°46' W 118°13'0 0.0
2014-Nov-20 07:33N 33°46' W 118°13'0 0.0
2014-Nov-20 06:33N 33°46' W 118°13'0 0.0
2014-Nov-20 05:33N 33°46' W 118°13'0 0.0
2014-Nov-20 04:32N 33°46' W 118°13'0 0.0
2014-Nov-20 03:33N 33°46' W 118°13'0 0.0
2014-Nov-20 02:33N 33°46' W 118°13'0 0.0
2014-Nov-20 01:33N 33°46' W 118°13'12235980.3
2014-Nov-20 01:21N 29°23' W 094°52'12231537.4
2014-Nov-20 00:33N 33°46' W 118°13'0 0.0
2014-Nov-19 23:33N 33°46' W 118°13'0 0.0
2014-Nov-19 22:33N 33°46' W 118°13'0 0.0
2014-Nov-19 21:33N 33°46' W 118°13'0 0.0
2014-Nov-19 20:33N 33°46' W 118°13'0 0.0
2014-Nov-19 19:33N 33°46' W 118°13'0 0.0
2014-Nov-19 18:33N 33°46' W 118°13'0 0.0
2014-Nov-19 17:33N 33°46' W 118°13'0 0.0
2014-Nov-19 16:33N 33°46' W 118°13'0 0.0
2014-Nov-19 15:33N 33°46' W 118°13'0 0.0
2014-Nov-19 14:24N 33°46' W 118°13'0 0.0
2014-Nov-19 13:33N 33°46' W 118°13'0 0.0
2014-Nov-19 12:33N 33°46' W 118°13'0 0.0
2014-Nov-19 11:28N 33°46' W 118°13'0 0.0
2014-Nov-19 10:33N 33°46' W 118°13'0 0.0
2014-Nov-19 09:33N 33°46' W 118°13'0 0.0
2014-Nov-19 08:33N 33°46' W 118°13'0 0.0
2014-Nov-19 07:33N 33°46' W 118°13'0 0.0
2014-Nov-19 06:33N 33°46' W 118°13'0 0.0
2014-Nov-19 05:33N 33°46' W 118°13'0 0.0
2014-Nov-19 04:33N 33°46' W 118°13'0 0.0
2014-Nov-19 03:33N 33°46' W 118°13'0 0.0
2014-Nov-19 02:33N 33°46' W 118°13'0 0.0
2014-Nov-19 01:33N 33°46' W 118°13'0 0.0
2014-Nov-19 00:33N 33°46' W 118°13'0 0.0
2014-Nov-18 23:33N 33°46' W 118°13'0 0.0
2014-Nov-18 22:33N 33°46' W 118°13'0 0.0
2014-Nov-18 21:33N 33°46' W 118°13'0 0.0
2014-Nov-18 20:33N 33°46' W 118°13'0 0.0
2014-Nov-18 19:33N 33°46' W 118°13'0 0.0
2014-Nov-18 18:33N 33°46' W 118°13'0 0.0
2014-Nov-18 17:33N 33°46' W 118°13'0 0.0
2014-Nov-18 16:33N 33°46' W 118°13'0 0.0
2014-Nov-18 15:33N 33°46' W 118°13'0 0.0
2014-Nov-18 14:33N 33°46' W 118°13'0 0.0
2014-Nov-18 13:33N 33°46' W 118°13'0 0.0
2014-Nov-18 12:33N 33°46' W 118°13'0 0.0
2014-Nov-18 11:33N 33°46' W 118°13'0 0.0
2014-Nov-18 10:33N 33°46' W 118°13'0 0.0
2014-Nov-18 09:33N 33°46' W 118°13'0 0.0
2014-Nov-18 08:33N 33°46' W 118°13'0 0.0
2014-Nov-18 07:33N 33°46' W 118°13'0 0.0
2014-Nov-18 06:33N 33°46' W 118°13'0 0.0
2014-Nov-18 05:33N 33°46' W 118°13'0 0.0
2014-Nov-18 04:33N 33°46' W 118°13'0 0.0
2014-Nov-18 03:33N 33°46' W 118°13'0 0.0
2014-Nov-18 02:33N 33°46' W 118°13'0 0.0
2014-Nov-18 01:33N 33°46' W 118°13'0 0.0
2014-Nov-18 00:33N 33°46' W 118°13'0 0.0
2014-Nov-17 23:33N 33°46' W 118°13'0 0.0
2014-Nov-17 20:24N 33°46' W 118°13'0 0.0
2014-Nov-17 18:33N 33°46' W 118°13'0 0.0
2014-Nov-16 18:33N 33°46' W 118°13'0 0.0
2014-Nov-16 17:33N 33°46' W 118°13'0 0.0
2014-Nov-16 16:33N 33°46' W 118°13'0 0.0
2014-Nov-16 15:33N 33°46' W 118°13'0 0.0
2014-Nov-16 14:32N 33°46' W 118°13'0 0.0
2014-Nov-16 13:33N 33°46' W 118°13'0 0.0
2014-Nov-16 12:33N 33°46' W 118°13'0 0.0
2014-Nov-16 11:33N 33°46' W 118°13'0 0.0
2014-Nov-16 10:33N 33°46' W 118°13'0 0.0
2014-Nov-16 09:33N 33°46' W 118°13'0 0.0
2014-Nov-16 08:33N 33°46' W 118°13'0 0.0
2014-Nov-16 07:32N 33°46' W 118°13'0 0.0
2014-Nov-16 06:33N 33°46' W 118°13'0 0.0
2014-Nov-16 05:33N 33°46' W 118°13'0 0.0
2014-Nov-16 04:33N 33°46' W 118°13'0 0.0
2014-Nov-16 03:33N 33°46' W 118°13'0 0.0
2014-Nov-16 02:33N 33°46' W 118°13'0 0.0
2014-Nov-16 01:33N 33°46' W 118°13'0 0.0
2014-Nov-16 00:33N 33°46' W 118°13'0 0.0
2014-Nov-15 23:33N 33°46' W 118°13'0 0.0
2014-Nov-15 22:33N 33°46' W 118°13'0 0.0
2014-Nov-15 21:33N 33°46' W 118°13'0 0.0
2014-Nov-15 20:33N 33°46' W 118°13'0 0.0
2014-Nov-15 19:33N 33°46' W 118°13'0 0.0
2014-Nov-15 18:33N 33°46' W 118°13'0 0.0
2014-Nov-15 17:33N 33°46' W 118°13'122346845.7
2014-Nov-15 17:32N 29°26' W 094°50'5 5.6
2014-Nov-15 16:34N 29°31' W 094°53'1219731612.6
2014-Nov-15 16:33N 33°46' W 118°13'12151216.9
2014-Nov-15 15:34N 29°35' W 094°56'1215728910.6
2014-Nov-15 15:33N 33°46' W 118°13'12111213.0
2014-Nov-15 14:34N 29°41' W 094°59'1211256437.0
2014-Nov-15 14:33N 33°46' W 118°13'0 0.0
2014-Nov-15 13:33N 33°46' W 118°13'121185449.5
2014-Nov-15 13:32N 29°41' W 094°59'12111224.8
2014-Nov-15 12:32N 33°46' W 118°13'121199043.3
2014-Nov-15 12:32N 29°41' W 094°59'12111245.8
2014-Nov-15 11:33N 33°46' W 118°13'121115676.0
2014-Nov-15 11:29N 29°41' W 094°59'12111312.6
2014-Nov-15 10:33N 33°46' W 118°13'121142309.9
2014-Nov-15 10:32N 29°41' W 094°59'0 0.5
2014-Nov-15 09:33N 29°41' W 094°59'1211103773.0
2014-Nov-15 09:33N 33°46' W 118°13'12061206.4
2014-Nov-15 08:33N 29°45' W 095°04'1206140023.1
2014-Nov-15 08:32N 33°46' W 118°13'0 0.0
2014-Nov-15 07:33N 33°46' W 118°13'0 0.0
2014-Nov-15 06:33N 33°46' W 118°13'0 0.0
2014-Nov-15 05:33N 33°46' W 118°13'0 0.0
2014-Nov-15 04:33N 33°46' W 118°13'0 0.0
2014-Nov-15 03:33N 33°46' W 118°13'0 0.0
2014-Nov-15 02:33N 33°46' W 118°13'0 0.0
2014-Nov-15 01:33N 33°46' W 118°13'0 0.0
2014-Nov-15 00:33N 33°46' W 118°13'0 0.0
2014-Nov-14 23:33N 33°46' W 118°13'12035345.6
2014-Nov-14 23:20N 29°46' W 095°07'12031546.4
2014-Nov-14 22:33N 33°46' W 118°13'120350940.9
2014-Nov-14 22:32N 29°46' W 095°07'12031235.7
2014-Nov-14 21:33N 33°46' W 118°13'120346558.9
2014-Nov-14 21:32N 29°46' W 095°07'12031235.0
2014-Nov-14 20:33N 33°46' W 118°13'120344638.8
2014-Nov-14 20:32N 29°46' W 095°07'12031232.2
2014-Nov-14 19:33N 33°46' W 118°13'12039840.8
2014-Nov-14 19:26N 29°46' W 095°07'12031374.6
2014-Nov-14 18:33N 33°46' W 118°13'120315631.7
2014-Nov-14 18:29N 29°46' W 095°07'12031303.0
2014-Nov-14 17:33N 33°46' W 118°13'12034343.0
2014-Nov-14 17:17N 29°46' W 095°07'12031663.5
2014-Nov-14 16:33N 33°46' W 118°13'120346558.9
2014-Nov-14 16:32N 29°46' W 095°07'12031227.7
2014-Nov-14 15:33N 33°46' W 118°13'12039999.9
2014-Nov-14 15:26N 29°46' W 095°07'12031375.5
2014-Nov-14 14:33N 33°46' W 118°13'120346063.5
2014-Nov-14 14:32N 29°46' W 095°07'1203609.4
2014-Nov-14 12:33N 33°46' W 118°13'0 0.0
2014-Nov-14 11:33N 33°46' W 118°13'0 0.0
2014-Nov-14 10:34N 33°46' W 118°13'0 0.0
2014-Nov-14 09:34N 33°46' W 118°13'1204149472.6
2014-Nov-14 09:33N 29°45' W 095°06'12041210.5
2014-Nov-14 08:33N 33°46' W 118°13'0 0.0
2014-Nov-14 07:33N 33°46' W 118°13'1203180511.8
2014-Nov-14 07:33N 29°45' W 095°07'12031204.4
2014-Nov-14 06:33N 33°46' W 118°13'12032989.8
2014-Nov-14 06:09N 29°45' W 095°07'12032033.0
2014-Nov-14 05:33N 33°46' W 118°13'12033920.6
2014-Nov-14 05:15N 29°45' W 095°07'12031736.4
2014-Nov-14 04:33N 33°46' W 118°13'1203173291.4
2014-Nov-14 04:33N 29°45' W 095°07'12031198.1
2014-Nov-14 03:33N 33°46' W 118°13'120318919.0
2014-Nov-14 03:29N 29°45' W 095°07'12031281.4
2014-Nov-14 02:33N 33°46' W 118°13'0 0.0
2014-Nov-14 01:33N 33°46' W 118°13'0 0.0
2014-Nov-14 00:33N 33°46' W 118°13'0 0.0
2014-Nov-13 23:33N 33°46' W 118°13'12012162277.9
2014-Nov-13 23:33N 29°44' W 095°09'12011205.3
2014-Nov-13 22:33N 33°46' W 118°13'0 0.0
2014-Nov-13 21:33N 33°46' W 118°13'0 0.0
2014-Nov-13 20:33N 33°46' W 118°13'0 0.0
2014-Nov-13 19:33N 33°46' W 118°13'11985355.5
2014-Nov-13 19:20N 29°43' W 095°14'11981541.9
2014-Nov-13 18:33N 33°46' W 118°13'0 0.0
2014-Nov-13 17:33N 33°46' W 118°13'0 0.0
2014-Nov-13 16:33N 33°46' W 118°13'0 0.0
2014-Nov-13 15:33N 33°46' W 118°13'  
Track history (hours):
 
Tides and Currents Weather Stations Pressure Air Temp Water Temp Dewpoint Dewpoint Depression Visibility Wind Speed Wind Dir Waves Ship Positions

Patcona II

Owner: Connolly-Pacific Co, long beach, CA. More information available from US FCC via Universal Licensing System and Coast Guard Vessel Documentation Center.

Last reported at 2014-Nov-23 15:33 UTC. Time now 2014-Nov-23 16:05 UTC.
Position N 33°46' W 118°13'.

; draft 9 m.

Type: Towing. MMSI: 366988960.

Date/timePositionNaut miles runAvg speedWind from/ knotsBaromVisibWave heightAir tempDewpointWater temp
2014-Nov-23 15:33N 33°46' W 118°13'0 0.0
2014-Nov-23 14:33N 33°46' W 118°13'0 0.0
2014-Nov-23 13:33N 33°46' W 118°13'0 0.0
2014-Nov-23 12:33N 33°46' W 118°13'0 0.0
2014-Nov-23 11:33N 33°46' W 118°13'0 0.0
2014-Nov-23 10:33N 33°46' W 118°13'0 0.0
2014-Nov-23 09:33N 33°46' W 118°13'0 0.0
2014-Nov-23 08:33N 33°46' W 118°13'0 0.0
2014-Nov-23 07:33N 33°46' W 118°13'0 0.0
2014-Nov-23 06:33N 33°46' W 118°13'0 0.0
2014-Nov-23 05:34N 33°46' W 118°13'0 0.0
2014-Nov-23 04:33N 33°46' W 118°13'0 0.0
2014-Nov-23 03:33N 33°46' W 118°13'0 0.0
2014-Nov-23 02:33N 33°46' W 118°13'0 0.0
2014-Nov-23 01:33N 33°46' W 118°13'0 0.0
2014-Nov-23 00:33N 33°46' W 118°13'0 0.0
2014-Nov-22 23:34N 33°46' W 118°13'0 0.0
2014-Nov-22 22:34N 33°46' W 118°13'0 0.0
2014-Nov-22 21:33N 33°46' W 118°13'0 0.0
2014-Nov-22 20:33N 33°46' W 118°13'0 0.0
2014-Nov-22 19:33N 33°46' W 118°13'0 0.0
2014-Nov-22 18:33N 33°46' W 118°13'0 0.0
2014-Nov-22 17:33N 33°46' W 118°13'0 0.0
2014-Nov-22 16:33N 33°46' W 118°13'0 0.0
2014-Nov-22 15:33N 33°46' W 118°13'11962987.3
2014-Nov-22 15:09N 29°43' W 095°16'11962003.1
2014-Nov-22 14:34N 33°46' W 118°13'0 0.0
2014-Nov-22 13:34N 33°46' W 118°13'0 0.0
2014-Nov-22 12:34N 33°46' W 118°13'11982436.5
2014-Nov-22 12:04N 29°44' W 095°14'11982345.1
2014-Nov-22 11:33N 33°46' W 118°13'120170887.7
2014-Nov-22 11:32N 29°44' W 095°09'12011225.0
2014-Nov-22 10:34N 33°46' W 118°13'12036188.5
2014-Nov-22 10:22N 29°47' W 095°06'12031493.8
2014-Nov-22 09:34N 33°46' W 118°13'120361013.6
2014-Nov-22 09:32N 29°47' W 095°06'12031224.4
2014-Nov-22 08:33N 33°46' W 118°13'12034331968.3
2014-Nov-22 08:33N 29°47' W 095°06'12031200.3
2014-Nov-22 07:33N 33°46' W 118°13'12035618.6
2014-Nov-22 07:20N 29°47' W 095°06'12031542.2
2014-Nov-22 06:34N 33°46' W 118°13'120316534.2
2014-Nov-22 06:29N 29°47' W 095°06'12031297.4
2014-Nov-22 05:34N 33°46' W 118°13'12035625.9
2014-Nov-22 05:21N 29°47' W 095°06'12031520.0
2014-Nov-22 04:33N 33°46' W 118°13'12033257.1
2014-Nov-22 04:11N 29°47' W 095°06'12031908.4
2014-Nov-22 03:33N 33°46' W 118°13'0 0.0
2014-Nov-22 02:33N 33°46' W 118°13'1203135373.8
2014-Nov-22 02:33N 29°47' W 095°06'12031214.5
2014-Nov-22 01:33N 33°46' W 118°13'1204135413.6
2014-Nov-22 01:33N 29°45' W 095°06'12041187.5
2014-Nov-22 00:32N 33°46' W 118°13'0 0.0
2014-Nov-21 23:34N 33°46' W 118°13'0 0.0
2014-Nov-21 22:33N 33°46' W 118°13'0 0.0
2014-Nov-21 21:32N 33°46' W 118°13'0 0.0
2014-Nov-21 20:33N 33°46' W 118°13'0 0.0
2014-Nov-21 19:33N 33°46' W 118°13'0 0.0
2014-Nov-21 18:34N 33°46' W 118°13'0 0.0
2014-Nov-21 17:33N 33°46' W 118°13'11988294.5
2014-Nov-21 17:25N 29°44' W 095°13'11981409.5
2014-Nov-21 16:34N 33°46' W 118°13'1200431966.5
2014-Nov-21 16:33N 29°45' W 095°11'5 4.9
2014-Nov-21 15:33N 29°46' W 095°05'12043443.2
2014-Nov-21 15:12N 33°46' W 118°13'0 0.0
2014-Nov-21 14:34N 33°46' W 118°13'1203481333.3
2014-Nov-21 14:33N 29°47' W 095°06'12031203.3
2014-Nov-21 13:33N 33°46' W 118°13'0 0.0
2014-Nov-21 12:33N 33°46' W 118°13'0 0.0
2014-Nov-21 11:34N 33°46' W 118°13'0 0.0
2014-Nov-21 10:34N 33°46' W 118°13'12114358258.1
2014-Nov-21 10:34N 29°41' W 094°59'7 7.2
2014-Nov-21 09:34N 29°35' W 094°56'1215546958.9
2014-Nov-21 09:33N 33°46' W 118°13'12211224.2
2014-Nov-21 08:34N 29°29' W 094°51'1221151594.5
2014-Nov-21 08:33N 33°46' W 118°13'0 0.0
2014-Nov-21 07:32N 33°46' W 118°13'0 0.0
2014-Nov-21 06:34N 33°46' W 118°13'0 0.0
2014-Nov-21 05:33N 33°46' W 118°13'0 0.0
2014-Nov-21 04:34N 33°46' W 118°13'0 0.0
2014-Nov-21 03:34N 33°46' W 118°13'0 0.0
2014-Nov-21 02:32N 33°46' W 118°13'0 0.0
2014-Nov-21 01:33N 33°46' W 118°13'0 0.0
2014-Nov-21 00:32N 33°46' W 118°13'0 0.0
2014-Nov-20 23:31N 33°46' W 118°13'0 0.0
2014-Nov-20 22:33N 33°46' W 118°13'0 0.0
2014-Nov-20 21:33N 33°46' W 118°13'0 0.0
2014-Nov-20 20:33N 33°46' W 118°13'0 0.0
2014-Nov-20 19:34N 33°46' W 118°13'0 0.0
2014-Nov-20 18:33N 33°46' W 118°13'0 0.0
2014-Nov-20 17:33N 33°46' W 118°13'0 0.0
2014-Nov-20 16:34N 33°46' W 118°13'0 0.0
2014-Nov-20 15:33N 33°46' W 118°13'0 0.0
2014-Nov-20 14:32N 33°46' W 118°13'0 0.0
2014-Nov-20 13:33N 33°46' W 118°13'0 0.0
2014-Nov-20 12:33N 33°46' W 118°13'0 0.0
2014-Nov-20 11:34N 33°46' W 118°13'0 0.0
2014-Nov-20 10:33N 33°46' W 118°13'0 0.0
2014-Nov-20 09:31N 33°46' W 118°13'0 0.0
2014-Nov-20 08:33N 33°46' W 118°13'0 0.0
2014-Nov-20 07:33N 33°46' W 118°13'0 0.0
2014-Nov-20 06:33N 33°46' W 118°13'0 0.0
2014-Nov-20 05:33N 33°46' W 118°13'0 0.0
2014-Nov-20 04:32N 33°46' W 118°13'0 0.0
2014-Nov-20 03:33N 33°46' W 118°13'0 0.0
2014-Nov-20 02:33N 33°46' W 118°13'0 0.0
2014-Nov-20 01:33N 33°46' W 118°13'12235980.3
2014-Nov-20 01:21N 29°23' W 094°52'12231537.4
2014-Nov-20 00:33N 33°46' W 118°13'0 0.0
2014-Nov-19 23:33N 33°46' W 118°13'0 0.0
2014-Nov-19 22:33N 33°46' W 118°13'0 0.0
2014-Nov-19 21:33N 33°46' W 118°13'0 0.0
2014-Nov-19 20:33N 33°46' W 118°13'0 0.0
2014-Nov-19 19:33N 33°46' W 118°13'0 0.0
2014-Nov-19 18:33N 33°46' W 118°13'0 0.0
2014-Nov-19 17:33N 33°46' W 118°13'0 0.0
2014-Nov-19 16:33N 33°46' W 118°13'0 0.0
2014-Nov-19 15:33N 33°46' W 118°13'0 0.0
2014-Nov-19 14:24N 33°46' W 118°13'0 0.0
2014-Nov-19 13:33N 33°46' W 118°13'0 0.0
2014-Nov-19 12:33N 33°46' W 118°13'0 0.0
2014-Nov-19 11:28N 33°46' W 118°13'0 0.0
2014-Nov-19 10:33N 33°46' W 118°13'0 0.0
2014-Nov-19 09:33N 33°46' W 118°13'0 0.0
2014-Nov-19 08:33N 33°46' W 118°13'0 0.0
2014-Nov-19 07:33N 33°46' W 118°13'0 0.0
2014-Nov-19 06:33N 33°46' W 118°13'0 0.0
2014-Nov-19 05:33N 33°46' W 118°13'0 0.0
2014-Nov-19 04:33N 33°46' W 118°13'0 0.0
2014-Nov-19 03:33N 33°46' W 118°13'0 0.0
2014-Nov-19 02:33N 33°46' W 118°13'0 0.0
2014-Nov-19 01:33N 33°46' W 118°13'0 0.0
2014-Nov-19 00:33N 33°46' W 118°13'0 0.0
2014-Nov-18 23:33N 33°46' W 118°13'0 0.0
2014-Nov-18 22:33N 33°46' W 118°13'0 0.0
2014-Nov-18 21:33N 33°46' W 118°13'0 0.0
2014-Nov-18 20:33N 33°46' W 118°13'0 0.0
2014-Nov-18 19:33N 33°46' W 118°13'0 0.0
2014-Nov-18 18:33N 33°46' W 118°13'0 0.0
2014-Nov-18 17:33N 33°46' W 118°13'0 0.0
2014-Nov-18 16:33N 33°46' W 118°13'0 0.0
2014-Nov-18 15:33N 33°46' W 118°13'0 0.0
2014-Nov-18 14:33N 33°46' W 118°13'0 0.0
2014-Nov-18 13:33N 33°46' W 118°13'0 0.0
2014-Nov-18 12:33N 33°46' W 118°13'0 0.0
2014-Nov-18 11:33N 33°46' W 118°13'0 0.0
2014-Nov-18 10:33N 33°46' W 118°13'0 0.0
2014-Nov-18 09:33N 33°46' W 118°13'0 0.0
2014-Nov-18 08:33N 33°46' W 118°13'0 0.0
2014-Nov-18 07:33N 33°46' W 118°13'0 0.0
2014-Nov-18 06:33N 33°46' W 118°13'0 0.0
2014-Nov-18 05:33N 33°46' W 118°13'0 0.0
2014-Nov-18 04:33N 33°46' W 118°13'0 0.0
2014-Nov-18 03:33N 33°46' W 118°13'0 0.0
2014-Nov-18 02:33N 33°46' W 118°13'0 0.0
2014-Nov-18 01:33N 33°46' W 118°13'0 0.0
2014-Nov-18 00:33N 33°46' W 118°13'0 0.0
2014-Nov-17 23:33N 33°46' W 118°13'0 0.0
2014-Nov-17 20:24N 33°46' W 118°13'0 0.0
2014-Nov-17 18:33N 33°46' W 118°13'0 0.0
2014-Nov-16 18:33N 33°46' W 118°13'0 0.0
2014-Nov-16 17:33N 33°46' W 118°13'0 0.0
2014-Nov-16 16:33N 33°46' W 118°13'0 0.0
2014-Nov-16 15:33N 33°46' W 118°13'0 0.0
2014-Nov-16 14:32N 33°46' W 118°13'0 0.0
2014-Nov-16 13:33N 33°46' W 118°13'0 0.0
2014-Nov-16 12:33N 33°46' W 118°13'0 0.0
2014-Nov-16 11:33N 33°46' W 118°13'0 0.0
2014-Nov-16 10:33N 33°46' W 118°13'0 0.0
2014-Nov-16 09:33N 33°46' W 118°13'0 0.0
2014-Nov-16 08:33N 33°46' W 118°13'0 0.0
2014-Nov-16 07:32N 33°46' W 118°13'0 0.0
2014-Nov-16 06:33N 33°46' W 118°13'0 0.0
2014-Nov-16 05:33N 33°46' W 118°13'0 0.0
2014-Nov-16 04:33N 33°46' W 118°13'0 0.0
2014-Nov-16 03:33N 33°46' W 118°13'0 0.0
2014-Nov-16 02:33N 33°46' W 118°13'0 0.0
2014-Nov-16 01:33N 33°46' W 118°13'0 0.0
2014-Nov-16 00:33N 33°46' W 118°13'0 0.0
2014-Nov-15 23:33N 33°46' W 118°13'0 0.0
2014-Nov-15 22:33N 33°46' W 118°13'0 0.0
2014-Nov-15 21:33N 33°46' W 118°13'0 0.0
2014-Nov-15 20:33N 33°46' W 118°13'0 0.0
2014-Nov-15 19:33N 33°46' W 118°13'0 0.0
2014-Nov-15 18:33N 33°46' W 118°13'0 0.0
2014-Nov-15 17:33N 33°46' W 118°13'122346845.7
2014-Nov-15 17:32N 29°26' W 094°50'5 5.6
2014-Nov-15 16:34N 29°31' W 094°53'1219731612.6
2014-Nov-15 16:33N 33°46' W 118°13'12151216.9
2014-Nov-15 15:34N 29°35' W 094°56'1215728910.6
2014-Nov-15 15:33N 33°46' W 118°13'12111213.0
2014-Nov-15 14:34N 29°41' W 094°59'1211256437.0
2014-Nov-15 14:33N 33°46' W 118°13'0 0.0
2014-Nov-15 13:33N 33°46' W 118°13'121185449.5
2014-Nov-15 13:32N 29°41' W 094°59'12111224.8
2014-Nov-15 12:32N 33°46' W 118°13'121199043.3
2014-Nov-15 12:32N 29°41' W 094°59'12111245.8
2014-Nov-15 11:33N 33°46' W 118°13'121115676.0
2014-Nov-15 11:29N 29°41' W 094°59'12111312.6
2014-Nov-15 10:33N 33°46' W 118°13'121142309.9
2014-Nov-15 10:32N 29°41' W 094°59'0 0.5
2014-Nov-15 09:33N 29°41' W 094°59'1211103773.0
2014-Nov-15 09:33N 33°46' W 118°13'12061206.4
2014-Nov-15 08:33N 29°45' W 095°04'1206140023.1
2014-Nov-15 08:32N 33°46' W 118°13'0 0.0
2014-Nov-15 07:33N 33°46' W 118°13'0 0.0
2014-Nov-15 06:33N 33°46' W 118°13'0 0.0
2014-Nov-15 05:33N 33°46' W 118°13'0 0.0
2014-Nov-15 04:33N 33°46' W 118°13'0 0.0
2014-Nov-15 03:33N 33°46' W 118°13'0 0.0
2014-Nov-15 02:33N 33°46' W 118°13'0 0.0
2014-Nov-15 01:33N 33°46' W 118°13'0 0.0
2014-Nov-15 00:33N 33°46' W 118°13'0 0.0
2014-Nov-14 23:33N 33°46' W 118°13'12035345.6
2014-Nov-14 23:20N 29°46' W 095°07'12031546.4
2014-Nov-14 22:33N 33°46' W 118°13'120350940.9
2014-Nov-14 22:32N 29°46' W 095°07'12031235.7
2014-Nov-14 21:33N 33°46' W 118°13'120346558.9
2014-Nov-14 21:32N 29°46' W 095°07'12031235.0
2014-Nov-14 20:33N 33°46' W 118°13'120344638.8
2014-Nov-14 20:32N 29°46' W 095°07'12031232.2
2014-Nov-14 19:33N 33°46' W 118°13'12039840.8
2014-Nov-14 19:26N 29°46' W 095°07'12031374.6
2014-Nov-14 18:33N 33°46' W 118°13'120315631.7
2014-Nov-14 18:29N 29°46' W 095°07'12031303.0
2014-Nov-14 17:33N 33°46' W 118°13'12034343.0
2014-Nov-14 17:17N 29°46' W 095°07'12031663.5
2014-Nov-14 16:33N 33°46' W 118°13'120346558.9
2014-Nov-14 16:32N 29°46' W 095°07'12031227.7
2014-Nov-14 15:33N 33°46' W 118°13'12039999.9
2014-Nov-14 15:26N 29°46' W 095°07'12031375.5
2014-Nov-14 14:33N 33°46' W 118°13'120346063.5
2014-Nov-14 14:32N 29°46' W 095°07'1203609.4
2014-Nov-14 12:33N 33°46' W 118°13'0 0.0
2014-Nov-14 11:33N 33°46' W 118°13'0 0.0
2014-Nov-14 10:34N 33°46' W 118°13'0 0.0
2014-Nov-14 09:34N 33°46' W 118°13'1204149472.6
2014-Nov-14 09:33N 29°45' W 095°06'12041210.5
2014-Nov-14 08:33N 33°46' W 118°13'0 0.0
2014-Nov-14 07:33N 33°46' W 118°13'1203180511.8
2014-Nov-14 07:33N 29°45' W 095°07'12031204.4
2014-Nov-14 06:33N 33°46' W 118°13'12032989.8
2014-Nov-14 06:09N 29°45' W 095°07'12032033.0
2014-Nov-14 05:33N 33°46' W 118°13'12033920.6
2014-Nov-14 05:15N 29°45' W 095°07'12031736.4
2014-Nov-14 04:33N 33°46' W 118°13'1203173291.4
2014-Nov-14 04:33N 29°45' W 095°07'12031198.1
2014-Nov-14 03:33N 33°46' W 118°13'120318919.0
2014-Nov-14 03:29N 29°45' W 095°07'12031281.4
2014-Nov-14 02:33N 33°46' W 118°13'0 0.0
2014-Nov-14 01:33N 33°46' W 118°13'0 0.0
2014-Nov-14 00:33N 33°46' W 118°13'0 0.0
2014-Nov-13 23:33N 33°46' W 118°13'12012162277.9
2014-Nov-13 23:33N 29°44' W 095°09'12011205.3
2014-Nov-13 22:33N 33°46' W 118°13'0 0.0
2014-Nov-13 21:33N 33°46' W 118°13'0 0.0
2014-Nov-13 20:33N 33°46' W 118°13'0 0.0
2014-Nov-13 19:33N 33°46' W 118°13'11985355.5
2014-Nov-13 19:20N 29°43' W 095°14'11981541.9
2014-Nov-13 18:33N 33°46' W 118°13'0 0.0
2014-Nov-13 17:33N 33°46' W 118°13'0 0.0
2014-Nov-13 16:33N 33°46' W 118°13'0 0.0
2014-Nov-13 15:33N 33°46' W 118°13'  

Dump ship's entire track history